Airfield :







YOU CAN JOIN US ON...

 
LOGIN :

Register | Disclaimer

   EN    FR    IT 

 









Legend :    VFR   Marginal VFR   IFR   Intensive IFR   Very Intensive IFR
Visi :
Ceiling :
>= 8 km
>= 3000ft
5 to 8 km
1000 to 3000 ft
1500m to 5 km
500 to 1000 ft
800 to 1500m
200 to 500 ft
< 800m
< 200 ft
Symbols :   Thunderstorms  Fog  Heavy snow  Heavy precipitations  Wind > 20 kt






- Airport Elevation : 110 ft
- IATA code : YFB


CYFB - Iqaluit

CURRENT METAR :
  • 180321Z 14013G20KT 3SM BR OVC002 00/M01 A2954 RMK ST8 CIG VRB 1-3 SLP006

EXPIRED METARs :
  • 180313Z 14015G21KT 3SM BR OVC001 00/M01 A2954 RMK ST8 SLP007
  • 180249Z 15017KT 5SM BR OVC003 00/M00 A2954 RMK ST8 SLP009
  • 180216Z 15013KT 6SM BR OVC004 00/M00 A2955 RMK ST8 SLP012
  • 180200Z 15013KT 8SM OVC006 00/M00 A2956 RMK ST8 SLP013
  • 180100Z 15012KT 8SM OVC006 01/M00 A2957 RMK ST8 SLP018

TAF AMD TAF CYFB
Valid from the 18 at 03:00 until the 19 at 00:00 UTC


180306Z 1803/1824 14015G25KT 5SM BR OVC006
TEMPO 1803/1815 1SM -SN BR OVC002
FM181500 14012KT 3SM -RASN BR OVC015
TEMPO 1815/1824 1SM -SN OVC006
BECMG 1822/1824 30006KT RMK NXT FCST BY 180600Z
CZUL FIR / North America



MET'MAP, your aeronautical weather chart ! - Copyright ORBIFLY December 2007 - Disclaimer

ORBIFLY MET'MAP TEAM :

Programming & Development : Alexandra Zaïnal
Concept & original design : Baudouin d'Aumeries
Assistance for programming : Marc-Olivier Méhu
Technical & hardware support : Manuel Goepfert

Contact : metmap@orbifly.com




SOURCES & CREDITS :

   NOAA